Time;durP1;ratioP1;P1;durP2;ratioP2;P2;SDS_P1;SDS_P2;PMS_P1;PMS_P2;Temp;Humidity;BMP_temperature;BMP_pressure;BME280_temperature;BME280_humidity;BME280_pressure;Samples;Min_cycle;Max_cycle;Signal;HPM_P1;HPM_P2
2021/03/21 00:02:14;;;;;;;0.50;0.47;;;6.10;84.80;;;;;;5092118;28;20048;-72
2021/03/21 00:04:40;;;;;;;0.63;0.60;;;6.00;84.70;;;;;;5091736;28;20119;-72
2021/03/21 00:07:06;;;;;;;1.00;0.70;;;6.00;84.80;;;;;;5091651;28;20139;-72
2021/03/21 00:09:31;;;;;;;1.02;0.68;;;6.00;84.80;;;;;;5091815;28;20044;-72
2021/03/21 00:11:57;;;;;;;1.17;0.80;;;6.00;84.80;;;;;;5091680;28;20036;-72
2021/03/21 00:14:23;;;;;;;1.63;0.85;;;6.00;85.50;;;;;;5091563;28;20040;-72
2021/03/21 00:16:48;;;;;;;1.08;0.70;;;6.00;85.50;;;;;;5091629;28;20482;-72
2021/03/21 00:19:14;;;;;;;1.38;0.90;;;6.00;84.90;;;;;;5091829;28;20506;-72
2021/03/21 00:21:39;;;;;;;1.45;0.88;;;6.00;84.90;;;;;;5073994;28;20386;-72
2021/03/21 00:24:06;;;;;;;1.55;1.08;;;6.00;85.00;;;;;;5091335;28;20074;-72
2021/03/21 00:26:33;;;;;;;1.50;0.90;;;6.00;85.00;;;;;;5091861;28;20064;-72
2021/03/21 00:28:59;;;;;;;1.98;1.00;;;6.10;85.10;;;;;;5091509;28;20092;-73
2021/03/21 00:31:25;;;;;;;1.00;0.80;;;6.00;85.10;;;;;;5091328;28;20490;-72
2021/03/21 00:33:51;;;;;;;1.67;0.95;;;6.00;85.10;;;;;;5091158;28;20040;-72
2021/03/21 00:36:18;;;;;;;1.77;1.08;;;6.10;85.20;;;;;;5091203;28;20062;-72
2021/03/21 00:38:48;;;;;;;1.77;1.10;;;6.10;85.20;;;;;;5091736;28;20115;-72
2021/03/21 00:41:20;;;;;;;1.40;1.00;;;6.00;85.20;;;;;;5072685;28;20044;-72
2021/03/21 00:43:46;;;;;;;1.83;1.05;;;6.00;85.20;;;;;;5073182;28;20425;-72
2021/03/21 00:46:13;;;;;;;1.20;0.80;;;6.00;85.30;;;;;;5091317;28;20044;-72
2021/03/21 00:48:41;;;;;;;1.42;1.02;;;6.00;85.30;;;;;;5091063;28;20032;-72
2021/03/21 00:51:08;;;;;;;1.23;0.90;;;6.00;85.40;;;;;;5073208;28;20040;-72
2021/03/21 00:53:33;;;;;;;1.25;0.70;;;6.00;85.40;;;;;;5091764;28;20040;-72
2021/03/21 00:55:59;;;;;;;1.38;0.80;;;6.00;85.50;;;;;;5093267;28;20065;-72
2021/03/21 00:58:26;;;;;;;0.80;0.70;;;6.00;85.50;;;;;;5094520;28;20044;-72
2021/03/21 01:00:54;;;;;;;1.33;0.80;;;6.00;86.20;;;;;;5094332;28;20046;-72
2021/03/21 01:03:21;;;;;;;1.23;0.80;;;6.00;85.60;;;;;;5095181;28;20129;-72
2021/03/21 01:05:51;;;;;;;0.90;0.60;;;6.00;85.60;;;;;;5094470;28;20063;-73
2021/03/21 01:08:20;;;;;;;0.98;0.70;;;5.90;85.60;;;;;;5094590;28;20040;-72
2021/03/21 01:10:48;;;;;;;1.27;0.70;;;5.90;85.70;;;;;;5094157;28;20039;-72
2021/03/21 01:13:16;;;;;;;1.55;0.80;;;6.00;85.80;;;;;;5075994;28;20044;-73
2021/03/21 01:15:42;;;;;;;0.77;0.70;;;6.00;85.80;;;;;;5093922;28;20506;-72
2021/03/21 01:18:13;;;;;;;0.88;0.50;;;5.90;85.80;;;;;;5074334;28;20407;-72
2021/03/21 01:20:39;;;;;;;;;;;6.00;86.00;;;;;;5076755;28;20055;-72
2021/03/21 01:23:05;;;;;;;;;;;5.90;85.80;;;;;;5094424;28;19912;-72
2021/03/21 01:25:30;;;;;;;;;;;5.90;85.80;;;;;;5094801;28;19926;-72
2021/03/21 01:27:56;;;;;;;;;;;5.90;85.80;;;;;;5076516;28;19908;-72
2021/03/21 01:30:23;;;;;;;;;;;5.90;85.80;;;;;;5094877;28;20007;-72
2021/03/21 01:32:48;;;;;;;;;;;5.90;85.80;;;;;;5094389;28;20384;-72
2021/03/21 01:35:14;;;;;;;;;;;6.00;85.80;;;;;;5094266;28;19916;-72
2021/03/21 01:37:40;;;;;;;;;;;6.00;85.80;;;;;;5076293;28;20286;-73
2021/03/21 01:40:06;;;;;;;;;;;6.10;85.80;;;;;;5094283;28;19988;-72
2021/03/21 01:42:38;;;;;;;;;;;5.90;85.70;;;;;;5075580;28;19913;-72
2021/03/21 01:45:23;;;;;;;;;;;6.00;85.70;;;;;;5094136;28;20388;-72
2021/03/21 01:47:49;;;;;;;;;;;5.90;85.70;;;;;;5094231;28;19912;-72
2021/03/21 01:50:24;;;;;;;;;;;5.90;85.70;;;;;;5093921;28;19961;-72
2021/03/21 01:52:50;;;;;;;;;;;5.90;85.70;;;;;;5075454;28;19912;-72
2021/03/21 01:55:16;;;;;;;;;;;6.00;85.70;;;;;;5093715;28;19911;-72
2021/03/21 01:57:42;;;;;;;;;;;6.00;85.70;;;;;;5093857;28;19998;-72
2021/03/21 02:00:09;;;;;;;;;;;5.90;85.70;;;;;;5093892;28;20015;-72
2021/03/21 02:02:34;;;;;;;;;;;5.90;85.70;;;;;;5094422;28;19926;-72
2021/03/21 02:05:00;;;;;;;;;;;5.90;85.70;;;;;;5093807;28;20281;-72
2021/03/21 02:07:32;;;;;;;;;;;5.90;85.70;;;;;;5093358;28;19911;-72
2021/03/21 02:10:07;;;;;;;;;;;5.90;85.70;;;;;;5094170;28;19919;-72
2021/03/21 02:12:45;;;;;;;;;;;6.00;85.80;;;;;;5091898;28;19912;-72
2021/03/21 02:15:24;;;;;;;;;;;6.00;85.80;;;;;;5093710;28;19965;-73
2021/03/21 02:17:57;;;;;;;;;;;5.90;85.70;;;;;;5092299;28;19920;-72
2021/03/21 02:20:28;;;;;;;;;;;5.90;85.80;;;;;;5075353;28;20267;-72
2021/03/21 02:23:05;;;;;;;;;;;6.00;85.80;;;;;;5093380;28;19912;-72
2021/03/21 02:25:45;;;;;;;;;;;5.90;85.70;;;;;;5093327;28;20332;-72
2021/03/21 02:28:23;;;;;;;;;;;6.00;85.80;;;;;;5093342;28;19935;-72
2021/03/21 02:30:50;;;;;;;;;;;5.90;85.80;;;;;;5091211;28;20386;-72
2021/03/21 02:33:23;;;;;;;;;;;5.90;85.80;;;;;;5093297;28;19959;-72
2021/03/21 02:35:56;;;;;;;;;;;5.90;85.80;;;;;;5093454;28;19916;-72
2021/03/21 02:38:28;;;;;;;;;;;6.00;85.90;;;;;;5093221;28;19966;-72
2021/03/21 02:41:02;;;;;;;;;;;6.00;85.90;;;;;;5093117;28;19916;-72
2021/03/21 02:43:31;;;;;;;;;;;6.00;85.90;;;;;;5093259;28;19991;-72
2021/03/21 02:45:58;;;;;;;;;;;5.90;85.80;;;;;;5093127;28;19912;-72
2021/03/21 02:48:28;;;;;;;;;;;5.90;85.80;;;;;;5093501;28;19989;-72
2021/03/21 02:50:56;;;;;;;;;;;6.00;85.90;;;;;;5093589;28;19912;-72
2021/03/21 02:53:25;;;;;;;;;;;6.00;85.90;;;;;;5093227;28;19912;-72
2021/03/21 02:55:52;;;;;;;;;;;6.00;85.90;;;;;;5092996;28;19946;-72
2021/03/21 02:58:26;;;;;;;;;;;6.00;85.90;;;;;;5093080;28;19919;-73
2021/03/21 03:00:56;;;;;;;;;;;6.00;85.90;;;;;;5092774;28;19966;-72
2021/03/21 03:03:24;;;;;;;;;;;6.00;85.90;;;;;;5092895;28;19911;-72
2021/03/21 03:05:51;;;;;;;;;;;6.00;85.90;;;;;;5092986;28;19919;-72
2021/03/21 03:08:19;;;;;;;;;;;6.00;85.90;;;;;;5089137;28;19995;-73
2021/03/21 03:10:48;;;;;;;;;;;6.00;85.80;;;;;;5092845;28;19911;-72
2021/03/21 03:13:17;;;;;;;;;;;6.00;85.80;;;;;;5092770;28;19911;-72
2021/03/21 03:15:43;;;;;;;;;;;6.00;85.90;;;;;;5092743;28;19912;-72
2021/03/21 03:18:16;;;;;;;;;;;6.00;85.80;;;;;;5091715;28;19919;-72
2021/03/21 03:20:43;;;;;;;;;;;6.00;85.80;;;;;;5092460;28;19971;-73
2021/03/21 03:23:15;;;;;;;;;;;6.10;85.90;;;;;;5092774;28;19912;-72
2021/03/21 03:25:51;;;;;;;;;;;6.10;85.90;;;;;;5092690;28;20000;-72
2021/03/21 03:28:36;;;;;;;;;;;6.00;85.80;;;;;;5092465;28;19918;-72
2021/03/21 03:31:11;;;;;;;;;;;6.10;85.90;;;;;;5077186;28;20338;-72
2021/03/21 03:33:37;;;;;;;;;;;6.10;85.90;;;;;;5092831;28;19919;-72
2021/03/21 03:36:04;;;;;;;;;;;6.10;85.90;;;;;;5092591;28;19912;-72
2021/03/21 03:38:29;;;;;;;;;;;6.20;86.00;;;;;;5092579;28;20396;-72
2021/03/21 03:40:56;;;;;;;;;;;6.10;85.90;;;;;;5092522;28;19962;-72
2021/03/21 03:43:31;;;;;;;;;;;6.10;86.00;;;;;;5092305;28;19946;-72
2021/03/21 03:46:13;;;;;;;;;;;6.10;86.00;;;;;;5092871;28;19912;-72
2021/03/21 03:48:43;;;;;;;;;;;6.10;86.00;;;;;;5092227;28;20021;-72
2021/03/21 03:51:11;;;;;;;;;;;6.10;85.90;;;;;;5092296;28;19912;-72
2021/03/21 03:53:43;;;;;;;;;;;6.20;86.00;;;;;;5092917;28;19912;-72
2021/03/21 03:56:11;;;;;;;;;;;6.10;85.90;;;;;;5092625;28;20437;-72
2021/03/21 03:58:56;;;;;;;;;;;6.20;86.00;;;;;;5092354;28;20362;-73
2021/03/21 04:01:32;;;;;;;;;;;6.10;85.90;;;;;;5075542;28;20374;-72
2021/03/21 04:04:03;;;;;;;;;;;6.20;86.00;;;;;;5090683;28;19912;-72
2021/03/21 04:06:49;;;;;;;;;;;6.20;86.00;;;;;;5092243;28;19935;-73
2021/03/21 04:09:18;;;;;;;;;;;6.10;86.00;;;;;;5076927;28;19911;-73
2021/03/21 04:11:48;;;;;;;;;;;6.20;86.00;;;;;;5092232;28;20037;-72
2021/03/21 04:14:18;;;;;;;;;;;6.30;86.00;;;;;;5092481;28;19912;-72
2021/03/21 04:16:54;;;;;;;;;;;6.30;86.00;;;;;;5092002;28;19919;-72
2021/03/21 04:19:23;;;;;;;;;;;6.20;86.00;;;;;;5091908;28;20262;-72
2021/03/21 04:21:58;;;;;;;;;;;6.30;86.00;;;;;;5091951;28;19911;-72
2021/03/21 04:24:34;;;;;;;;;;;6.30;86.00;;;;;;5073862;28;19979;-72
2021/03/21 04:27:02;;;;;;;;;;;6.20;85.90;;;;;;5091940;28;19918;-72
2021/03/21 04:29:31;;;;;;;;;;;6.30;86.00;;;;;;5093431;28;19969;-72
2021/03/21 04:31:59;;;;;;;;;;;6.30;86.00;;;;;;5074276;28;19912;-72
2021/03/21 04:34:26;;;;;;;;;;;6.30;86.00;;;;;;5095249;28;19965;-72
2021/03/21 04:36:53;;;;;;;;;;;6.30;85.90;;;;;;5095130;28;20370;-72
2021/03/21 04:39:21;;;;;;;;;;;6.30;85.80;;;;;;5095219;28;20317;-72
2021/03/21 04:41:49;;;;;;;;;;;6.30;85.80;;;;;;5095809;28;19912;-72
2021/03/21 04:44:18;;;;;;;;;;;6.30;85.80;;;;;;5075747;28;20014;-72
2021/03/21 04:46:46;;;;;;;;;;;6.40;85.90;;;;;;5095764;28;19912;-72
2021/03/21 04:49:12;;;;;;;;;;;6.40;85.90;;;;;;5095227;28;19912;-72
2021/03/21 04:51:41;;;;;;;;;;;6.30;85.80;;;;;;5094937;28;20048;-72
2021/03/21 04:54:13;;;;;;;;;;;6.40;86.00;;;;;;5094792;28;19926;-72
2021/03/21 04:56:42;;;;;;;;;;;6.30;85.90;;;;;;5094907;28;20023;-72
2021/03/21 04:59:16;;;;;;;;;;;6.40;85.90;;;;;;5094830;28;19912;-72
2021/03/21 05:01:52;;;;;;;;;;;6.40;85.90;;;;;;5091024;28;19923;-72
2021/03/21 05:04:20;;;;;;;;;;;6.30;85.90;;;;;;5095075;28;19912;-72
2021/03/21 05:07:02;;;;;;;;;;;6.30;85.90;;;;;;5095161;28;20014;-72
2021/03/21 05:09:32;;;;;;;;;;;6.40;86.00;;;;;;5094985;28;20405;-73
2021/03/21 05:12:01;;;;;;;;;;;6.40;86.00;;;;;;5091226;28;19912;-73
2021/03/21 05:14:33;;;;;;;;;;;6.40;85.90;;;;;;5094611;28;19912;-72
2021/03/21 05:17:03;;;;;;;;;;;6.50;86.00;;;;;;5094747;28;19912;-72
2021/03/21 05:19:40;;;;;;;;;;;6.50;86.00;;;;;;5094932;28;19965;-72
2021/03/21 05:22:21;;;;;;;;;;;6.50;86.00;;;;;;5094658;28;19965;-72
2021/03/21 05:25:01;;;;;;;;;;;6.40;85.90;;;;;;5094760;28;19912;-72
2021/03/21 05:27:31;;;;;;;;;;;6.40;85.90;;;;;;5094280;28;19911;-72
2021/03/21 05:30:11;;;;;;;;;;;6.50;86.00;;;;;;5094500;28;19919;-72
2021/03/21 05:32:37;;;;;;;;;;;6.50;86.00;;;;;;5094641;28;19951;-72
2021/03/21 05:35:05;;;;;;;;;;;6.40;85.90;;;;;;5094728;28;19912;-72
2021/03/21 05:37:42;;;;;;;;;;;6.50;85.90;;;;;;5094348;28;19912;-72
2021/03/21 05:40:22;;;;;;;;;;;6.50;85.90;;;;;;5093611;28;20026;-72
2021/03/21 05:43:05;;;;;;;;;;;6.50;85.90;;;;;;5094362;28;19919;-72
2021/03/21 05:45:41;;;;;;;;;;;6.50;85.90;;;;;;5090566;28;19908;-72
2021/03/21 05:48:26;;;;;;;;;;;6.50;85.90;;;;;;5091804;28;19912;-72
2021/03/21 05:51:03;;;;;;;;;;;6.50;85.80;;;;;;5076381;28;19911;-73
2021/03/21 05:53:44;;;;;;;;;;;6.50;85.80;;;;;;5094155;28;19912;-73
2021/03/21 05:56:24;;;;;;;;;;;6.60;85.80;;;;;;5094226;28;19916;-72
2021/03/21 05:59:04;;;;;;;;;;;6.50;85.70;;;;;;5075949;28;19912;-74
2021/03/21 06:01:44;;;;;;;;;;;6.50;85.70;;;;;;5093519;28;19923;-74
2021/03/21 06:04:24;;;;;;;;;;;6.70;85.70;;;;;;5093928;28;19912;-74
2021/03/21 06:06:59;;;;;;;;;;;6.60;85.50;;;;;;5094124;28;19950;-74
2021/03/21 06:09:30;;;;;;;;;;;6.60;85.40;;;;;;5093931;28;20273;-74
2021/03/21 06:12:15;;;;;;;;;;;6.70;85.50;;;;;;5094171;28;19916;-73
2021/03/21 06:14:55;;;;;;;;;;;6.70;85.50;;;;;;5077436;28;19918;-73
2021/03/21 06:17:30;;;;;;;;;;;6.60;85.40;;;;;;5094029;28;19912;-72
2021/03/21 06:20:16;;;;;;;;;;;6.70;85.40;;;;;;5073753;28;19916;-72
2021/03/21 06:22:55;;;;;;;;;;;6.70;85.40;;;;;;5060760;28;20243;-73
2021/03/21 06:25:36;;;;;;;;;;;6.70;85.40;;;;;;5094016;28;19908;-73
2021/03/21 06:28:16;;;;;;;;;;;6.70;85.50;;;;;;5093800;28;20350;-72
2021/03/21 06:30:48;;;;;;;;;;;6.60;85.40;;;;;;5073460;28;19912;-73
2021/03/21 06:33:24;;;;;;;;;;;6.60;85.50;;;;;;5094216;28;19908;-73
2021/03/21 06:36:03;;;;;;;;;;;6.70;85.50;;;;;;5075447;28;20373;-72
2021/03/21 06:38:40;;;;;;;;;;;6.70;85.50;;;;;;5093510;28;19915;-72
2021/03/21 06:41:25;;;;;;;;;;;6.70;85.40;;;;;;5093430;28;19916;-73
2021/03/21 06:44:03;;;;;;;;;;;6.70;85.40;;;;;;5078440;28;19946;-73
2021/03/21 06:46:46;;;;;;;;;;;6.70;85.40;;;;;;5093338;28;20369;-73
2021/03/21 06:49:31;;;;;;;;;;;6.70;85.40;;;;;;5093336;28;20299;-72
2021/03/21 06:52:01;;;;;;;;;;;6.70;85.40;;;;;;5093254;28;19919;-73
2021/03/21 06:54:31;;;;;;;;;;;6.60;85.30;;;;;;5075341;28;19961;-73
2021/03/21 06:57:16;;;;;;;;;;;6.70;85.40;;;;;;5093281;28;20002;-73
2021/03/21 06:59:57;;;;;;;;;;;6.70;85.30;;;;;;5072119;28;20369;-73
2021/03/21 07:02:41;;;;;;;;;;;6.70;85.30;;;;;;5073951;28;20417;-73
2021/03/21 07:05:26;;;;;;;;;;;6.70;85.20;;;;;;5093053;28;19954;-73
2021/03/21 07:08:12;;;;;;;;;;;6.70;85.80;;;;;;5093115;28;19966;-73
2021/03/21 07:10:51;;;;;;;;;;;6.70;85.10;;;;;;5077979;28;19912;-72
2021/03/21 07:13:37;;;;;;;;;;;6.80;85.20;;;;;;5073374;28;19924;-73
2021/03/21 07:16:11;;;;;;;;;;;6.70;85.10;;;;;;5077976;28;20008;-72
2021/03/21 07:18:56;;;;;;;;;;;6.80;85.10;;;;;;5092991;28;19973;-73
2021/03/21 07:21:34;;;;;;;;;;;6.90;85.10;;;;;;5077521;28;19916;-73
2021/03/21 07:24:14;;;;;;;;;;;6.80;85.00;;;;;;5092723;28;20287;-73
2021/03/21 07:26:52;;;;;;;;;;;6.90;85.00;;;;;;5092910;28;20002;-73
2021/03/21 07:29:33;;;;;;;;;;;6.90;84.90;;;;;;5089691;28;20416;-73
2021/03/21 07:32:13;;;;;;;;;;;7.00;84.90;;;;;;5092153;28;19912;-72
2021/03/21 07:34:50;;;;;;;;;;;7.00;84.90;;;;;;5090504;28;19919;-73
2021/03/21 07:37:35;;;;;;;;;;;7.10;84.90;;;;;;5092548;28;19912;-73
2021/03/21 07:40:13;;;;;;;;;;;7.10;84.90;;;;;;5077652;28;20330;-73
2021/03/21 07:42:59;;;;;;;;;;;7.20;84.80;;;;;;5092915;28;19911;-73
2021/03/21 07:45:44;;;;;;;;;;;7.20;84.60;;;;;;5072929;28;19966;-73
2021/03/21 07:48:24;;;;;;;;;;;7.30;84.50;;;;;;5092559;28;19908;-73
2021/03/21 07:50:54;;;;;;;;;;;7.30;84.40;;;;;;5092490;28;19912;-73
2021/03/21 07:53:23;;;;;;;;;;;7.40;84.30;;;;;;5072828;28;19909;-73
2021/03/21 07:55:53;;;;;;;;;;;7.40;84.10;;;;;;5092620;28;19999;-73
2021/03/21 07:58:23;;;;;;;;;;;7.40;83.90;;;;;;5088499;28;19908;-73
2021/03/21 08:00:49;;;;;;;;;;;7.50;83.90;;;;;;5088246;28;19916;-74
2021/03/21 08:03:19;;;;;;;;;;;7.60;83.90;;;;;;5092253;28;19935;-72
2021/03/21 08:05:44;;;;;;;;;;;7.50;83.70;;;;;;5077794;28;21063;-73
2021/03/21 08:08:12;;;;;;;;;;;7.60;84.20;;;;;;5095991;28;19945;-73
2021/03/21 08:10:39;;;;;;;;;;;7.60;84.10;;;;;;5096043;28;20312;-73
2021/03/21 08:13:15;;;;;;;;;;;7.60;83.50;;;;;;5096595;28;19919;-73
2021/03/21 08:15:41;;;;;;;;;;;7.70;83.50;;;;;;5093285;28;19912;-74
2021/03/21 08:18:09;;;;;;;;;;;7.60;83.40;;;;;;5095807;28;19976;-73
2021/03/21 08:20:36;;;;;;;;;;;7.70;83.30;;;;;;5096023;28;19916;-73
2021/03/21 08:23:16;;;;;;;;;;;7.80;83.30;;;;;;5095581;28;19976;-74
2021/03/21 08:25:42;;;;;;;;;;;7.80;83.20;;;;;;5076419;28;20354;-73
2021/03/21 08:28:12;;;;;;;;;;;7.90;83.20;;;;;;5077612;28;19919;-73
2021/03/21 08:30:54;;;;;;;;;;;7.90;83.10;;;;;;5095554;28;19962;-74
2021/03/21 08:33:29;;;;;;;;;;;7.90;83.00;;;;;;5094944;28;19958;-73
2021/03/21 08:36:07;;;;;;;;;;;7.90;83.00;;;;;;5095547;28;20002;-73
2021/03/21 08:38:33;;;;;;;;;;;7.90;82.80;;;;;;5094283;28;19927;-73
2021/03/21 08:40:59;;;;;;;;;;;7.80;82.80;;;;;;5077101;28;20286;-73
2021/03/21 08:43:27;;;;;;;;;;;7.90;82.80;;;;;;5095299;28;19919;-73
2021/03/21 08:46:06;;;;;;;;;;;7.90;82.80;;;;;;5095228;28;19943;-73
2021/03/21 08:48:34;;;;;;;;;;;7.90;82.90;;;;;;5077325;28;19916;-78
2021/03/21 08:51:19;;;;;;;;;;;7.90;82.90;;;;;;5095494;28;19912;-80
2021/03/21 08:53:59;;;;;;;;;;;8.00;82.90;;;;;;5095507;28;20331;-76
2021/03/21 08:56:29;;;;;;;;;;;8.00;82.90;;;;;;5095119;28;19912;-76
2021/03/21 08:59:14;;;;;;;;;;;8.10;82.70;;;;;;5094997;28;19912;-76
2021/03/21 09:01:41;;;;;;;;;;;8.20;82.40;;;;;;5095196;28;19915;-76
2021/03/21 09:04:09;;;;;;;;;;;8.30;82.40;;;;;;5095267;28;19912;-78
2021/03/21 09:06:38;;;;;;;;;;;8.20;82.30;;;;;;5076934;28;20045;-74
2021/03/21 09:09:20;;;;;;;;;;;8.20;82.30;;;;;;5094869;28;20365;-74
2021/03/21 09:11:47;;;;;;;;;;;8.10;82.20;;;;;;5094928;28;19915;-76
2021/03/21 09:14:14;;;;;;;;;;;8.00;82.10;;;;;;5060373;28;19954;-76
2021/03/21 09:17:00;;;;;;;;;;;8.10;82.30;;;;;;5093702;28;20309;-76
2021/03/21 09:19:28;;;;;;;;;;;8.10;82.30;;;;;;5094352;28;19911;-77
2021/03/21 09:21:54;;;;;;;;;;;8.00;82.20;;;;;;5094861;28;19911;-77
2021/03/21 09:24:23;;;;;;;;;;;8.00;82.20;;;;;;5094955;28;19956;-77
2021/03/21 09:26:49;;;;;;;;;;;8.00;82.20;;;;;;5094945;28;19912;-77
2021/03/21 09:29:24;;;;;;;;;;;8.00;82.20;;;;;;5094834;28;19934;-77
2021/03/21 09:31:53;;;;;;;;;;;8.00;82.20;;;;;;5074627;28;19912;-77
2021/03/21 09:34:31;;;;;;;;;;;8.00;82.10;;;;;;5094582;28;19965;-77
2021/03/21 09:37:00;;;;;;;;;;;8.00;81.90;;;;;;5094476;28;19912;-77
2021/03/21 09:39:29;;;;;;;;;;;8.20;82.00;;;;;;5094667;28;19915;-77
2021/03/21 09:41:55;;;;;;;;;;;8.10;81.60;;;;;;5094629;28;19959;-77
2021/03/21 09:44:36;;;;;;;;;;;8.20;81.60;;;;;;5076634;28;19911;-77
2021/03/21 09:47:21;;;;;;;;;;;8.20;81.40;;;;;;5091394;28;19919;-77
2021/03/21 09:49:51;;;;;;;;;;;8.30;81.50;;;;;;5078081;28;20350;-77
2021/03/21 09:52:23;;;;;;;;;;;8.30;81.30;;;;;;5072962;28;19912;-79
2021/03/21 09:54:59;;;;;;;;;;;8.40;81.30;;;;;;5073556;28;19934;-76
2021/03/21 09:57:36;;;;;;;;;;;8.40;81.10;;;;;;5094292;28;19971;-77
2021/03/21 10:00:05;;;;;;;;;;;8.50;81.10;;;;;;5094697;28;19916;-77
2021/03/21 10:02:41;;;;;;;;;;;8.50;80.90;;;;;;5094565;28;19958;-76
2021/03/21 10:05:11;;;;;;;;;;;8.40;80.80;;;;;;5091901;28;19912;-77
2021/03/21 10:07:56;;;;;;;;;;;8.40;80.90;;;;;;5076470;28;19942;-77
2021/03/21 10:10:23;;;;;;;;;;;8.40;80.80;;;;;;5094267;28;19912;-76
2021/03/21 10:12:49;;;;;;;;;;;8.40;80.80;;;;;;5094167;28;19995;-77
2021/03/21 10:15:18;;;;;;;;;;;8.40;80.60;;;;;;5095107;28;19962;-77
2021/03/21 10:17:46;;;;;;;;;;;8.30;80.30;;;;;;5094270;28;19918;-76
2021/03/21 10:20:13;;;;;;;;;;;8.30;80.30;;;;;;5093945;28;19916;-80
2021/03/21 10:22:55;;;;;;;;;;;8.40;80.10;;;;;;5077020;28;19919;-75
2021/03/21 10:25:41;;;;;;;;;;;8.40;80.10;;;;;;5093918;28;19912;-75
2021/03/21 10:28:18;;;;;;;;;;;8.50;80.00;;;;;;5090645;28;19912;-80
2021/03/21 10:31:02;;;;;;;;;;;8.70;79.80;;;;;;5095348;28;19953;-78
2021/03/21 10:33:29;;;;;;;;;;;8.70;79.60;;;;;;5094436;28;20421;-76
2021/03/21 10:35:55;;;;;;;;;;;8.70;79.60;;;;;;5094424;28;20451;-78
2021/03/21 10:38:40;;;;;;;;;;;8.90;79.60;;;;;;5094886;28;19912;-79
2021/03/21 10:41:06;;;;;;;;;;;8.90;79.40;;;;;;5093509;28;19919;-77
2021/03/21 10:43:48;;;;;;;;;;;9.00;79.00;;;;;;5076323;28;20429;-76
2021/03/21 10:46:33;;;;;;;;;;;8.90;78.90;;;;;;5093651;28;20338;-75
2021/03/21 10:48:59;;;;;;;;;;;8.90;79.10;;;;;;5093080;28;19957;-77
2021/03/21 10:51:44;;;;;;;;;;;8.90;79.20;;;;;;5093559;28;19912;-76
2021/03/21 10:54:23;;;;;;;;;;;8.80;79.10;;;;;;5093542;28;19912;-77
2021/03/21 10:57:01;;;;;;;;;;;8.80;79.30;;;;;;5093500;28;19911;-77
2021/03/21 10:59:26;;;;;;;;;;;8.80;79.20;;;;;;5093315;28;19912;-77
2021/03/21 11:02:12;;;;;;;;;;;8.80;79.10;;;;;;5093446;28;20274;-77
2021/03/21 11:04:37;;;;;;;;;;;8.90;79.00;;;;;;5089881;28;19998;-77
2021/03/21 11:07:11;;;;;;;;;;;8.80;78.80;;;;;;5075277;28;19958;-77
2021/03/21 11:09:48;;;;;;;;;;;8.90;78.80;;;;;;5093212;28;20357;-77
2021/03/21 11:12:14;;;;;;;;;;;9.10;78.70;;;;;;5072755;28;19935;-77
2021/03/21 11:14:39;;;;;;;;;;;9.20;78.30;;;;;;5093922;28;20412;-77
2021/03/21 11:17:18;;;;;;;;;;;9.30;78.20;;;;;;5093189;28;19912;-78
2021/03/21 11:19:47;;;;;;;;;;;9.40;77.80;;;;;;5072587;28;19912;-78
2021/03/21 11:22:23;;;;;;;;;;;9.20;77.80;;;;;;5093090;28;19927;-78
2021/03/21 11:24:48;;;;;;;;;;;9.10;78.10;;;;;;5074747;28;19995;-78
2021/03/21 11:27:23;;;;;;;;;;;9.30;78.60;;;;;;5092913;28;20341;-78
2021/03/21 11:29:49;;;;;;;;;;;9.30;78.50;;;;;;5092928;28;19912;-77
2021/03/21 11:32:18;;;;;;;;;;;9.50;78.30;;;;;;5092818;28;19912;-77
2021/03/21 11:34:46;;;;;;;;;;;9.40;77.90;;;;;;5092992;28;20002;-77
2021/03/21 11:37:18;;;;;;;;;;;9.40;77.90;;;;;;5092914;28;19912;-78
2021/03/21 11:39:47;;;;;;;;;;;9.40;77.70;;;;;;5092018;28;20381;-78
2021/03/21 11:42:22;;;;;;;;;;;9.40;77.90;;;;;;5092897;28;19941;-78
2021/03/21 11:44:50;;;;;;;;;;;9.30;77.90;;;;;;5092881;28;19912;-78
2021/03/21 11:47:31;;;;;;;;;;;9.30;77.90;;;;;;5093054;28;19912;-78
2021/03/21 11:49:58;;;;;;;;;;;9.20;78.00;;;;;;5089235;28;19961;-77
2021/03/21 11:52:24;;;;;;;;;;;9.30;78.10;;;;;;5093015;28;19912;-78
2021/03/21 11:54:50;;;;;;;;;;;9.50;78.00;;;;;;5092666;28;19959;-77
2021/03/21 11:57:35;;;;;;;;;;;9.40;77.50;;;;;;5074902;28;20315;-78
2021/03/21 12:00:05;;;;;;;;;;;9.50;77.70;;;;;;5089484;28;19916;-78
2021/03/21 12:02:36;;;;;;;;;;;9.50;77.40;;;;;;5092733;28;19912;-78
2021/03/21 12:05:04;;;;;;;;;;;9.60;77.20;;;;;;5089735;28;19938;-78
2021/03/21 12:07:31;;;;;;;;;;;9.60;77.00;;;;;;5092807;28;19951;-78
2021/03/21 12:09:56;;;;;;;;;;;9.60;77.10;;;;;;5092372;28;19958;-78
2021/03/21 12:12:31;;;;;;;;;;;9.60;77.20;;;;;;5093244;28;19912;-77
2021/03/21 12:14:57;;;;;;;;;;;9.50;77.20;;;;;;5092597;28;19908;-77
2021/03/21 12:17:35;;;;;;;;;;;9.50;77.20;;;;;;5092649;28;19912;-77
2021/03/21 12:20:20;;;;;;;;;;;9.50;77.10;;;;;;5092281;28;19916;-79
2021/03/21 12:22:49;;;;;;;;;;;9.70;77.10;;;;;;5092951;28;19915;-81
2021/03/21 12:25:26;;;;;;;;;;;9.50;77.00;;;;;;5074511;28;19912;-80
2021/03/21 12:28:00;;;;;;;;;;;9.40;77.20;;;;;;5092445;28;19908;-81
2021/03/21 12:30:30;;;;;;;;;;;9.40;77.50;;;;;;5092224;28;19927;-80
2021/03/21 12:33:07;;;;;;;;;;;9.40;77.70;;;;;;5092241;28;19916;-81
2021/03/21 12:35:40;;;;;;;;;;;9.40;77.40;;;;;;5088417;28;19918;-81
2021/03/21 12:38:09;;;;;;;;;;;9.70;77.50;;;;;;5092093;28;19941;-80
2021/03/21 12:40:36;;;;;;;;;;;9.60;77.20;;;;;;5072328;28;19916;-81
2021/03/21 12:43:19;;;;;;;;;;;9.60;77.00;;;;;;5092248;28;19931;-80
2021/03/21 12:45:59;;;;;;;;;;;9.40;77.20;;;;;;5091868;28;19912;-82
2021/03/21 12:48:25;;;;;;;;;;;9.50;77.40;;;;;;5091904;28;19911;-80
2021/03/21 12:50:50;;;;;;;;;;;9.30;77.20;;;;;;5093874;28;19919;-80
2021/03/21 12:53:24;;;;;;;;;;;9.30;77.50;;;;;;5095182;28;19919;-80
2021/03/21 12:55:50;;;;;;;;;;;9.30;77.80;;;;;;5095509;28;19919;-81
2021/03/21 12:58:16;;;;;;;;;;;9.30;77.80;;;;;;5095625;28;19912;-80
2021/03/21 13:00:42;;;;;;;;;;;9.30;77.60;;;;;;5094951;28;19916;-81
2021/03/21 13:03:09;;;;;;;;;;;9.30;77.70;;;;;;5095289;28;19918;-81
2021/03/21 13:05:38;;;;;;;;;;;9.40;77.60;;;;;;5075220;28;19920;-80
2021/03/21 13:08:03;;;;;;;;;;;9.40;77.50;;;;;;5076918;28;19915;-81
2021/03/21 13:10:32;;;;;;;;;;;9.40;77.20;;;;;;5095129;28;20398;-81
2021/03/21 13:12:57;;;;;;;;;;;9.30;77.40;;;;;;5094710;28;19926;-80
2021/03/21 13:15:23;;;;;;;;;;;9.40;77.30;;;;;;5075552;28;19912;-82
2021/03/21 13:17:49;;;;;;;;;;;9.40;77.20;;;;;;5095049;28;19912;-80
2021/03/21 13:20:16;;;;;;;;;;;9.50;77.10;;;;;;5094517;28;19916;-80
2021/03/21 13:22:41;;;;;;;;;;;9.40;76.90;;;;;;5094698;28;19919;-81
2021/03/21 13:25:08;;;;;;;;;;;9.50;76.90;;;;;;5074760;28;19913;-80
2021/03/21 13:27:33;;;;;;;;;;;9.30;76.80;;;;;;5095246;28;20331;-82
2021/03/21 13:29:59;;;;;;;;;;;9.40;77.10;;;;;;5094161;28;19912;-81
2021/03/21 13:32:25;;;;;;;;;;;9.30;77.00;;;;;;5095107;28;19920;-80
2021/03/21 13:34:52;;;;;;;;;;;9.40;77.00;;;;;;5094623;28;19990;-81
2021/03/21 13:37:20;;;;;;;;;;;9.30;76.90;;;;;;5094790;28;19920;-80
2021/03/21 13:39:46;;;;;;;;;;;9.30;77.00;;;;;;5094538;28;19923;-80
2021/03/21 13:42:11;;;;;;;;;;;9.40;76.90;;;;;;5094650;28;19912;-80
2021/03/21 13:44:40;;;;;;;;;;;9.50;76.80;;;;;;5076529;28;20350;-81
2021/03/21 13:47:06;;;;;;;;;;;9.50;76.70;;;;;;5094604;28;20002;-80
2021/03/21 13:49:31;;;;;;;;;;;9.60;76.70;;;;;;5095017;28;20361;-80
2021/03/21 13:51:57;;;;;;;;;;;9.40;76.70;;;;;;5094577;28;19908;-81
2021/03/21 13:54:22;;;;;;;;;;;9.40;76.70;;;;;;5094727;28;19965;-81
2021/03/21 13:56:48;;;;;;;;;;;9.40;76.70;;;;;;5094693;28;19912;-81
2021/03/21 13:59:14;;;;;;;;;;;9.30;76.90;;;;;;5094411;28;20366;-81
2021/03/21 14:01:39;;;;;;;;;;;9.30;77.00;;;;;;5093440;28;19916;-81
2021/03/21 14:04:05;;;;;;;;;;;9.20;76.90;;;;;;5094347;28;19920;-81
2021/03/21 14:06:30;;;;;;;;;;;9.20;77.00;;;;;;5076055;28;20392;-80
2021/03/21 14:08:56;;;;;;;;;;;9.20;77.10;;;;;;5094299;28;19999;-81
2021/03/21 14:11:22;;;;;;;;;;;9.20;77.30;;;;;;5094181;28;19942;-81
2021/03/21 14:13:48;;;;;;;;;;;9.20;77.30;;;;;;5094201;28;20389;-81
2021/03/21 14:16:14;;;;;;;;;;;9.20;77.20;;;;;;5094128;28;20371;-80
2021/03/21 14:18:40;;;;;;;;;;;9.30;77.10;;;;;;5093900;28;19912;-81
2021/03/21 14:21:05;;;;;;;;;;;9.30;76.80;;;;;;5093864;28;20352;-80
2021/03/21 14:23:31;;;;;;;;;;;9.30;76.70;;;;;;5075651;28;20293;-81
2021/03/21 14:25:58;;;;;;;;;;;9.30;76.70;;;;;;5093982;28;19916;-79
2021/03/21 14:28:24;;;;;;;;;;;9.20;76.60;;;;;;5094003;28;19908;-81
2021/03/21 14:30:50;;;;;;;;;;;9.10;76.80;;;;;;5093856;28;19961;-80
2021/03/21 14:33:17;;;;;;;;;;;9.00;76.90;;;;;;5093992;28;19964;-80
2021/03/21 14:35:43;;;;;;;;;;;9.00;77.20;;;;;;5093762;28;19912;-80
2021/03/21 14:38:11;;;;;;;;;;;9.10;77.20;;;;;;5093487;28;19920;-81
2021/03/21 14:40:37;;;;;;;;;;;9.10;77.00;;;;;;5093377;28;19939;-80
2021/03/21 14:43:03;;;;;;;;;;;9.00;76.90;;;;;;5093955;28;20000;-80
2021/03/21 14:45:29;;;;;;;;;;;9.10;77.00;;;;;;5093757;28;20346;-81
2021/03/21 14:47:54;;;;;;;;;;;9.10;76.90;;;;;;5093763;28;19955;-81